createdAt,value
2019-05-02T00:01:26.856Z,30.53
2019-05-02T00:03:57.114Z,29.17
2019-05-02T00:06:27.337Z,29.47
2019-05-02T00:08:56.931Z,29.97
2019-05-02T00:11:27.129Z,30.70
2019-05-02T00:13:57.038Z,31.83
2019-05-02T00:16:26.725Z,27.33
2019-05-02T00:18:56.484Z,29.13
2019-05-02T00:21:26.150Z,30.17
2019-05-02T00:23:59.131Z,29.20
2019-05-02T00:26:26.952Z,29.73
2019-05-02T00:28:56.676Z,27.70
2019-05-02T00:31:26.248Z,28.17
2019-05-02T00:33:55.830Z,27.60
2019-05-02T00:36:25.383Z,27.73
2019-05-02T00:38:54.978Z,27.83
2019-05-02T00:41:24.567Z,27.30
2019-05-02T00:43:54.194Z,26.50
2019-05-02T00:46:23.767Z,26.90
2019-05-02T00:48:59.678Z,26.80
2019-05-02T00:51:26.671Z,27.37
2019-05-02T00:53:57.549Z,27.03
2019-05-02T00:56:27.119Z,27.33
2019-05-02T00:58:56.680Z,27.83
2019-05-02T01:01:29.454Z,26.87
2019-05-02T01:04:17.444Z,26.10
2019-05-02T01:06:49.273Z,25.40
2019-05-02T01:09:18.315Z,25.83
2019-05-02T01:11:47.892Z,25.30
2019-05-02T01:14:17.510Z,25.93
2019-05-02T01:16:49.454Z,25.60
2019-05-02T01:19:18.397Z,24.10
2019-05-02T01:21:49.602Z,24.30
2019-05-02T01:24:19.167Z,23.17
2019-05-02T01:26:50.378Z,23.80
2019-05-02T01:29:31.749Z,24.30
2019-05-02T01:32:07.274Z,22.63
2019-05-02T01:34:44.337Z,24.23
2019-05-02T01:37:21.131Z,24.30
2019-05-02T01:39:49.781Z,25.03
2019-05-02T01:42:19.330Z,23.83
2019-05-02T01:44:48.902Z,25.07
2019-05-02T01:47:18.426Z,25.17
2019-05-02T01:49:51.958Z,25.40
2019-05-02T01:52:23.791Z,24.50
2019-05-02T01:54:50.512Z,26.10
2019-05-02T01:57:20.064Z,25.93
2019-05-02T01:59:49.631Z,24.73
2019-05-02T02:02:19.494Z,25.70
2019-05-02T02:04:52.235Z,26.27
2019-05-02T02:07:21.238Z,26.00
2019-05-02T02:09:50.910Z,26.97
2019-05-02T02:12:20.545Z,28.50
2019-05-02T02:14:53.470Z,27.30
2019-05-02T02:17:21.334Z,28.40
2019-05-02T02:19:52.521Z,27.10
2019-05-02T02:22:23.725Z,28.50
2019-05-02T02:25:10.932Z,27.33
2019-05-02T02:27:40.741Z,27.17
2019-05-02T02:30:17.772Z,27.53
2019-05-02T02:32:42.264Z,27.93
2019-05-02T02:35:12.680Z,27.20
2019-05-02T02:37:51.912Z,28.27
2019-05-02T02:40:14.497Z,30.63
2019-05-02T02:42:44.077Z,29.67
2019-05-02T02:45:38.620Z,28.83
2019-05-02T02:48:08.122Z,28.87
2019-05-02T02:50:45.399Z,28.60
2019-05-02T02:53:18.067Z,28.60
2019-05-02T02:55:47.866Z,29.83
2019-05-02T02:58:17.419Z,27.63
2019-05-02T03:00:47.581Z,29.00
2019-05-02T03:03:20.783Z,29.83
2019-05-02T03:05:49.623Z,30.57
2019-05-02T03:08:19.345Z,30.53
2019-05-02T03:10:49.282Z,28.43
2019-05-02T03:13:24.585Z,29.13
2019-05-02T03:16:13.434Z,28.33
2019-05-02T03:18:43.326Z,27.93
2019-05-02T03:21:19.603Z,27.10
2019-05-02T03:23:44.687Z,27.77
2019-05-02T03:26:15.574Z,28.67
2019-05-02T03:28:57.298Z,29.10
2019-05-02T03:31:30.337Z,29.53
2019-05-02T03:33:56.594Z,29.37
2019-05-02T03:36:29.628Z,32.97
2019-05-02T03:38:51.729Z,31.43
2019-05-02T03:41:23.649Z,31.60
2019-05-02T03:44:09.940Z,31.60
2019-05-02T03:46:24.158Z,30.57
2019-05-02T03:49:05.969Z,31.83
2019-05-02T03:51:25.508Z,30.20
2019-05-02T03:54:06.104Z,32.60
2019-05-02T03:56:26.525Z,31.03
2019-05-02T03:58:58.207Z,32.83
2019-05-02T04:01:27.728Z,33.00
2019-05-02T04:03:57.456Z,32.40
2019-05-02T04:06:27.008Z,32.93
2019-05-02T04:08:59.842Z,32.13
2019-05-02T04:11:38.293Z,31.33
2019-05-02T04:14:00.132Z,31.37
2019-05-02T04:16:30.796Z,31.27
2019-05-02T04:19:02.607Z,32.67
2019-05-02T04:21:32.622Z,33.80
2019-05-02T04:24:12.881Z,32.07
2019-05-02T04:26:34.567Z,32.20
2019-05-02T04:29:04.260Z,31.13
2019-05-02T04:31:34.052Z,31.17
2019-05-02T04:34:13.591Z,31.57
2019-05-02T04:36:35.210Z,32.70
2019-05-02T04:39:12.714Z,30.67
2019-05-02T04:41:42.509Z,30.77
2019-05-02T04:44:10.768Z,31.70
2019-05-02T04:46:40.327Z,33.20
2019-05-02T04:49:09.881Z,33.43
2019-05-02T04:51:41.001Z,31.97
2019-05-02T04:54:21.848Z,30.63
2019-05-02T04:56:49.511Z,32.07
2019-05-02T04:59:17.856Z,31.30
2019-05-02T05:01:52.773Z,32.07
2019-05-02T05:04:17.817Z,31.87
2019-05-02T05:06:55.882Z,31.20
2019-05-02T05:09:21.737Z,29.40
2019-05-02T05:11:53.920Z,30.50
2019-05-02T05:14:22.552Z,29.30
2019-05-02T05:16:55.572Z,29.70
2019-05-02T05:19:28.710Z,28.83
2019-05-02T05:21:56.722Z,29.40
2019-05-02T05:24:27.947Z,29.47
2019-05-02T05:27:00.176Z,31.73
2019-05-02T05:29:29.869Z,30.80
2019-05-02T05:32:05.105Z,32.30
2019-05-02T05:34:32.738Z,33.30
2019-05-02T05:37:03.532Z,30.50
2019-05-02T05:39:33.597Z,31.60
2019-05-02T05:42:03.107Z,31.00
2019-05-02T05:44:32.911Z,30.63
2019-05-02T05:47:02.476Z,30.03
2019-05-02T05:49:32.068Z,29.97
2019-05-02T05:52:03.721Z,30.90
2019-05-02T05:54:37.547Z,30.13
2019-05-02T05:57:04.222Z,29.20
2019-05-02T05:59:33.821Z,28.27
2019-05-02T06:02:05.695Z,29.00
2019-05-02T06:04:35.014Z,27.93
2019-05-02T06:07:04.643Z,27.40
2019-05-02T06:09:34.219Z,28.00
2019-05-02T06:12:04.292Z,30.43
2019-05-02T06:14:35.432Z,29.33
2019-05-02T06:17:05.168Z,29.13
2019-05-02T06:19:34.798Z,30.80
2019-05-02T06:22:04.406Z,31.87
2019-05-02T06:24:35.211Z,31.67
2019-05-02T06:27:04.922Z,32.33
2019-05-02T06:29:37.605Z,33.70
2019-05-02T06:32:07.314Z,34.67
2019-05-02T06:34:46.011Z,33.20
2019-05-02T06:37:13.432Z,31.90
2019-05-02T06:39:42.667Z,32.27
2019-05-02T06:42:12.209Z,32.00
2019-05-02T06:44:42.522Z,32.23
2019-05-02T06:47:13.106Z,34.50
2019-05-02T06:49:43.914Z,33.27
2019-05-02T06:52:14.487Z,31.73
2019-05-02T06:54:44.166Z,35.63
2019-05-02T06:57:13.898Z,34.30
2019-05-02T06:59:43.437Z,36.03
2019-05-02T07:02:13.049Z,36.17
2019-05-02T07:04:42.581Z,36.73
2019-05-02T07:07:13.213Z,36.90
2019-05-02T07:09:43.216Z,38.60
2019-05-02T07:12:14.730Z,39.10
2019-05-02T07:14:45.875Z,38.70
2019-05-02T07:17:36.451Z,40.10
2019-05-02T07:20:08.581Z,39.17
2019-05-02T07:22:40.442Z,39.80
2019-05-02T07:25:11.071Z,40.90
2019-05-02T07:27:40.703Z,36.17
2019-05-02T07:30:11.844Z,36.80
2019-05-02T07:32:41.392Z,38.20
2019-05-02T07:35:11.260Z,36.27
2019-05-02T07:37:43.969Z,37.23
2019-05-02T07:40:16.924Z,36.80
2019-05-02T07:42:47.992Z,37.13
2019-05-02T07:45:18.251Z,36.87
2019-05-02T07:47:47.967Z,37.83
2019-05-02T07:50:17.830Z,35.67
2019-05-02T07:52:47.445Z,36.37
2019-05-02T07:55:17.039Z,36.90
2019-05-02T07:57:46.805Z,35.40
2019-05-02T08:00:18.749Z,37.77
2019-05-02T08:02:51.947Z,37.93
2019-05-02T08:05:23.955Z,35.77
2019-05-02T08:07:55.201Z,36.23
2019-05-02T08:10:25.072Z,38.67
2019-05-02T08:12:54.832Z,36.37
2019-05-02T08:15:24.932Z,36.37
2019-05-02T08:17:55.212Z,35.60
2019-05-02T08:20:25.191Z,36.83
2019-05-02T08:22:54.756Z,35.87
2019-05-02T08:25:24.389Z,36.73
2019-05-02T08:27:55.565Z,35.07
2019-05-02T08:30:26.915Z,36.70
2019-05-02T08:32:56.498Z,36.73
2019-05-02T08:35:28.317Z,37.60
2019-05-02T08:37:59.789Z,36.43
2019-05-02T08:40:32.628Z,36.97
2019-05-02T08:43:03.700Z,36.77
2019-05-02T08:45:38.139Z,37.27
2019-05-02T08:48:06.774Z,35.33
2019-05-02T08:50:39.183Z,36.40
2019-05-02T08:53:08.785Z,35.80
2019-05-02T08:55:41.425Z,35.50
2019-05-02T08:58:14.539Z,39.37
2019-05-02T09:00:41.162Z,38.07
2019-05-02T09:03:10.797Z,39.27
2019-05-02T09:05:46.023Z,38.30
2019-05-02T09:08:14.247Z,37.60
2019-05-02T09:10:45.548Z,39.23
2019-05-02T09:13:23.269Z,38.33
2019-05-02T09:15:51.190Z,40.63
2019-05-02T09:18:17.767Z,39.30
2019-05-02T09:20:52.572Z,39.53
2019-05-02T09:23:18.612Z,40.47
2019-05-02T09:25:48.882Z,39.23
2019-05-02T09:28:22.502Z,38.40
2019-05-02T09:30:52.313Z,41.37
2019-05-02T09:33:25.648Z,36.90
2019-05-02T09:35:53.635Z,37.37
2019-05-02T09:38:24.412Z,35.73
2019-05-02T09:40:56.174Z,36.67
2019-05-02T09:44:25.377Z,36.20
2019-05-02T09:46:16.594Z,35.50
2019-05-02T09:48:45.943Z,36.37
2019-05-02T09:51:17.567Z,33.20
2019-05-02T09:53:47.573Z,36.10
2019-05-02T09:56:19.354Z,35.40
2019-05-02T09:58:54.292Z,35.20
2019-05-02T10:01:28.656Z,34.87
2019-05-02T10:03:58.586Z,35.90
2019-05-02T10:06:32.071Z,34.73
2019-05-02T10:09:05.686Z,35.43
2019-05-02T10:11:35.554Z,35.47
2019-05-02T10:14:07.194Z,34.03
2019-05-02T10:16:38.844Z,34.03
2019-05-02T10:19:25.725Z,36.27
2019-05-02T10:21:56.201Z,35.30
2019-05-02T10:24:25.580Z,33.73
2019-05-02T10:27:04.276Z,31.97
2019-05-02T10:29:29.900Z,31.90
2019-05-02T10:32:01.768Z,33.33
2019-05-02T10:34:32.968Z,33.90
2019-05-02T10:37:03.220Z,34.10
2019-05-02T10:39:37.969Z,31.67
2019-05-02T10:42:12.411Z,31.37
2019-05-02T10:44:42.685Z,31.57
2019-05-02T10:47:13.035Z,31.23
2019-05-02T10:49:45.277Z,31.10
2019-05-02T10:52:15.990Z,33.10
2019-05-02T10:54:45.865Z,31.43
2019-05-02T10:57:15.732Z,30.57
2019-05-02T10:59:46.353Z,30.37
2019-05-02T11:02:29.233Z,32.27
2019-05-02T11:05:17.002Z,30.80
2019-05-02T11:07:44.574Z,28.93
2019-05-02T11:10:15.207Z,27.17
2019-05-02T11:12:47.179Z,28.33
2019-05-02T11:15:34.984Z,27.30
2019-05-02T11:18:05.601Z,26.53
2019-05-02T11:20:35.748Z,28.37
2019-05-02T11:23:05.547Z,25.83
2019-05-02T11:25:35.484Z,26.73
2019-05-02T11:28:07.102Z,27.03
2019-05-02T11:30:39.045Z,28.93
2019-05-02T11:33:09.493Z,26.10
2019-05-02T11:35:41.877Z,26.97
2019-05-02T11:38:34.556Z,25.93
2019-05-02T11:40:43.173Z,26.30
2019-05-02T11:43:15.136Z,28.20
2019-05-02T11:45:44.588Z,26.50
2019-05-02T11:48:16.151Z,28.10
2019-05-02T11:50:46.675Z,26.60
2019-05-02T11:53:29.181Z,27.50
2019-05-02T11:55:49.747Z,27.67
2019-05-02T11:58:20.107Z,26.70
2019-05-02T12:00:52.080Z,27.77
2019-05-02T12:03:35.502Z,27.13
2019-05-02T12:06:01.973Z,24.17
2019-05-02T12:08:31.999Z,24.77
2019-05-02T12:11:03.890Z,24.67
2019-05-02T12:13:33.824Z,23.17
2019-05-02T12:16:05.210Z,23.83
2019-05-02T12:18:35.080Z,24.53
2019-05-02T12:21:04.809Z,23.20
2019-05-02T12:23:36.369Z,22.83
2019-05-02T12:26:06.674Z,22.83
2019-05-02T12:28:36.593Z,23.00
2019-05-02T12:31:13.204Z,22.37
2019-05-02T12:33:42.741Z,26.70
2019-05-02T12:36:12.485Z,26.23
2019-05-02T12:38:54.467Z,26.13
2019-05-02T12:41:28.323Z,27.40
2019-05-02T12:43:57.868Z,26.17
2019-05-02T12:46:32.658Z,25.10
2019-05-02T12:49:02.815Z,25.57
2019-05-02T12:51:32.734Z,24.07
2019-05-02T12:54:14.081Z,25.23
2019-05-02T12:56:50.295Z,22.33
2019-05-02T12:59:25.953Z,23.03
2019-05-02T13:03:16.383Z,25.70
2019-05-02T13:25:02.422Z,24.43
2019-05-02T13:27:43.266Z,25.27
2019-05-02T13:30:06.701Z,23.77
2019-05-02T13:32:38.863Z,24.30
2019-05-02T13:35:31.515Z,25.10
2019-05-02T13:38:02.768Z,25.57
2019-05-02T13:40:41.830Z,24.90
2019-05-02T13:43:12.565Z,23.30
2019-05-02T13:45:45.786Z,22.27
2019-05-02T13:48:16.580Z,23.20
2019-05-02T13:50:46.879Z,23.47
2019-05-02T13:53:17.366Z,21.23
2019-05-02T13:55:52.422Z,22.50
2019-05-02T13:58:28.977Z,21.73
2019-05-02T14:00:53.531Z,20.60
2019-05-02T14:03:23.353Z,21.40
2019-05-02T14:05:53.864Z,20.50
2019-05-02T14:08:37.057Z,22.70
2019-05-02T14:11:07.044Z,20.93
2019-05-02T14:13:38.182Z,22.57
2019-05-02T14:16:08.347Z,21.83
2019-05-02T14:18:38.980Z,20.07
2019-05-02T14:21:08.598Z,20.80
2019-05-02T14:23:38.168Z,23.33
2019-05-02T14:26:07.825Z,22.17
2019-05-02T14:28:37.387Z,22.93
2019-05-02T14:31:07.190Z,20.77
2019-05-02T14:33:39.138Z,20.80
2019-05-02T14:36:11.601Z,21.83
2019-05-02T14:38:42.203Z,23.10
2019-05-02T14:41:13.387Z,23.27
2019-05-02T14:43:55.520Z,22.83
2019-05-02T14:46:34.440Z,22.63
2019-05-02T14:48:57.232Z,22.77
2019-05-02T14:51:28.003Z,25.13
2019-05-02T14:54:03.820Z,25.00
2019-05-02T14:56:32.893Z,25.47
2019-05-02T14:59:02.760Z,24.20
2019-05-02T15:01:32.443Z,23.27
2019-05-02T15:04:06.504Z,23.27
2019-05-02T15:06:38.422Z,22.97
2019-05-02T15:09:11.925Z,25.00
2019-05-02T15:11:46.073Z,23.07
2019-05-02T15:14:19.807Z,23.43
2019-05-02T15:16:56.649Z,24.63
2019-05-02T15:19:22.434Z,29.97
2019-05-02T15:21:55.941Z,32.27
2019-05-02T15:24:27.817Z,32.33
2019-05-02T15:26:56.011Z,38.67
2019-05-02T15:29:27.288Z,37.73
2019-05-02T15:32:05.273Z,40.07
2019-05-02T15:34:43.270Z,40.57
2019-05-02T15:37:09.773Z,41.87
2019-05-02T15:42:12.143Z,41.37
2019-05-02T15:44:42.630Z,43.07
2019-05-02T15:47:12.452Z,43.30
2019-05-02T15:49:50.157Z,41.90
2019-05-02T15:52:24.172Z,43.77
2019-05-02T15:54:59.760Z,43.10
2019-05-02T15:57:27.085Z,41.20
2019-05-02T15:59:59.176Z,43.23
2019-05-02T16:02:32.080Z,41.00
2019-05-02T16:05:05.393Z,43.67
2019-05-02T16:07:38.014Z,40.43
2019-05-02T16:10:13.136Z,38.97
2019-05-02T16:12:44.461Z,39.93
2019-05-02T16:15:24.608Z,42.17
2019-05-02T16:17:56.746Z,41.30
2019-05-02T16:20:34.538Z,40.27
2019-05-02T16:23:05.950Z,40.83
2019-05-02T16:25:35.514Z,41.87
2019-05-02T16:28:06.164Z,43.50
2019-05-02T16:30:36.958Z,41.90
2019-05-02T16:33:07.999Z,44.87
2019-05-02T16:35:41.930Z,45.20
2019-05-02T16:38:12.303Z,46.63
2019-05-02T16:40:43.129Z,45.57
2019-05-02T16:43:12.937Z,44.73
2019-05-02T16:45:43.894Z,45.57
2019-05-02T16:48:13.658Z,46.23
2019-05-02T16:50:45.057Z,48.17
2019-05-02T16:53:17.140Z,48.80
2019-05-02T16:55:48.591Z,48.93
2019-05-02T16:58:19.218Z,49.33
2019-05-02T17:00:49.073Z,46.37
2019-05-02T17:03:22.759Z,42.90
2019-05-02T17:05:54.183Z,41.87
2019-05-02T17:08:42.218Z,39.70
2019-05-02T17:11:17.551Z,37.13
2019-05-02T17:13:49.803Z,33.83
2019-05-02T17:16:22.134Z,32.23
2019-05-02T17:18:56.577Z,31.40
2019-05-02T17:21:26.782Z,30.57
2019-05-02T17:23:58.022Z,31.37
2019-05-02T17:26:28.446Z,29.87
2019-05-02T17:29:00.098Z,29.43
2019-05-02T17:31:32.251Z,24.67
2019-05-02T17:34:02.857Z,24.37
2019-05-02T17:36:32.884Z,24.87
2019-05-02T17:39:06.331Z,23.10
2019-05-02T17:41:37.131Z,22.90
2019-05-02T17:44:07.706Z,23.70
2019-05-02T17:46:39.288Z,25.20
2019-05-02T17:49:11.806Z,27.30
2019-05-02T17:51:51.823Z,27.60
2019-05-02T17:54:22.796Z,29.40
2019-05-02T17:56:57.346Z,31.60
2019-05-02T17:59:33.022Z,29.93
2019-05-02T18:02:01.854Z,30.77
2019-05-02T18:04:32.537Z,31.73
2019-05-02T18:07:04.506Z,32.47
2019-05-02T18:09:35.144Z,32.77
2019-05-02T18:12:07.224Z,33.23
2019-05-02T18:14:36.612Z,31.37
2019-05-02T18:17:06.242Z,30.83
2019-05-02T18:19:37.731Z,27.77
2019-05-02T18:22:22.486Z,28.27
2019-05-02T18:24:42.786Z,28.30
2019-05-02T18:27:10.285Z,27.80
2019-05-02T18:29:42.614Z,28.07
2019-05-02T18:32:12.888Z,27.83
2019-05-02T18:34:42.627Z,26.97
2019-05-02T18:37:12.297Z,25.73
2019-05-02T18:39:49.900Z,26.33
2019-05-02T18:42:16.612Z,25.30
2019-05-02T18:44:48.239Z,26.90
2019-05-02T18:47:20.166Z,24.87
2019-05-02T18:49:47.633Z,24.90
2019-05-02T18:52:17.257Z,26.50
2019-05-02T18:54:47.449Z,26.63
2019-05-02T18:57:21.814Z,25.53
2019-05-02T18:59:51.957Z,28.53
2019-05-02T19:02:21.258Z,27.60
2019-05-02T19:04:51.726Z,26.93
2019-05-02T19:07:30.910Z,27.13
2019-05-02T19:09:53.936Z,26.87
2019-05-02T19:12:25.992Z,27.13
2019-05-02T19:14:57.458Z,26.90
2019-05-02T19:17:26.206Z,27.13
2019-05-02T19:19:55.783Z,26.70
2019-05-02T19:22:25.617Z,25.73
2019-05-02T19:24:55.215Z,25.17
2019-05-02T19:27:29.111Z,24.33
2019-05-02T19:29:58.688Z,27.13
2019-05-02T19:32:28.541Z,25.40
2019-05-02T19:35:05.382Z,24.77
2019-05-02T19:37:31.611Z,23.73
2019-05-02T19:40:01.606Z,25.37
2019-05-02T19:42:31.853Z,24.23
2019-05-02T19:45:11.197Z,25.33
2019-05-02T19:47:33.499Z,23.40
2019-05-02T19:50:03.867Z,22.20
2019-05-02T19:52:39.188Z,22.60
2019-05-02T19:55:06.737Z,23.17
2019-05-02T19:57:36.856Z,23.73
2019-05-02T20:00:08.868Z,23.20
2019-05-02T20:02:42.239Z,25.43
2019-05-02T20:05:11.855Z,25.67
2019-05-02T20:07:42.697Z,24.83
2019-05-02T20:10:17.922Z,24.20
2019-05-02T20:12:48.233Z,23.53
2019-05-02T20:15:25.350Z,24.80
2019-05-02T20:17:55.293Z,24.13
2019-05-02T20:20:42.664Z,24.20
2019-05-02T20:23:17.948Z,24.83
2019-05-02T20:25:44.904Z,24.80
2019-05-02T20:28:14.748Z,25.57
2019-05-02T20:30:44.468Z,25.93
2019-05-02T20:33:14.248Z,27.20
2019-05-02T20:35:44.006Z,27.47
2019-05-02T20:38:13.920Z,28.27
2019-05-02T20:40:43.741Z,29.53
2019-05-02T20:43:13.577Z,27.53
2019-05-02T20:45:46.103Z,28.23
2019-05-02T20:48:15.245Z,25.10
2019-05-02T20:50:45.106Z,18.60
2019-05-02T20:53:27.480Z,17.00
2019-05-02T20:55:46.545Z,15.67
2019-05-02T20:58:16.316Z,14.97
2019-05-02T21:00:46.270Z,14.03
2019-05-02T21:03:16.230Z,15.03
2019-05-02T21:05:47.986Z,10.50
2019-05-02T21:08:25.882Z,9.53
2019-05-02T21:11:01.798Z,8.27
2019-05-02T21:13:32.744Z,7.00
2019-05-02T21:16:02.877Z,6.37
2019-05-02T21:18:32.910Z,7.30
2019-05-02T21:21:02.950Z,5.10
2019-05-02T21:23:44.168Z,5.03
2019-05-02T21:26:04.743Z,5.70
2019-05-02T21:28:34.615Z,5.20
2019-05-02T21:31:04.641Z,5.90
2019-05-02T21:33:37.551Z,6.50
2019-05-02T21:36:08.119Z,6.63
2019-05-02T21:38:38.622Z,5.67
2019-05-02T21:41:11.376Z,4.07
2019-05-02T21:43:42.471Z,4.67
2019-05-02T21:46:12.357Z,4.50
2019-05-02T21:48:42.184Z,3.30
2019-05-02T21:51:17.034Z,3.17
2019-05-02T21:53:55.069Z,3.77
2019-05-02T21:56:23.536Z,3.33
2019-05-02T21:59:05.944Z,3.50
2019-05-02T22:01:42.089Z,3.87
2019-05-02T22:04:13.175Z,3.17
2019-05-02T22:06:42.934Z,3.30
2019-05-02T22:09:12.847Z,3.70
2019-05-02T22:11:43.155Z,2.57
2019-05-02T22:14:13.308Z,3.00
2019-05-02T22:16:43.606Z,3.20
2019-05-02T22:19:13.132Z,3.40
2019-05-02T22:21:43.098Z,3.20
2019-05-02T22:24:14.405Z,3.47
2019-05-02T22:26:44.141Z,3.50
2019-05-02T22:29:13.688Z,3.33
2019-05-02T22:31:43.244Z,3.60
2019-05-02T22:34:13.066Z,3.30
2019-05-02T22:36:43.829Z,3.53
2019-05-02T22:39:31.687Z,2.87
2019-05-02T22:42:01.993Z,3.83
2019-05-02T22:44:32.700Z,3.23
2019-05-02T22:47:02.207Z,3.43
2019-05-02T22:49:31.973Z,3.97
2019-05-02T22:52:01.855Z,3.80
2019-05-02T22:54:33.885Z,3.87
2019-05-02T22:57:02.806Z,3.80
2019-05-02T22:59:32.354Z,3.77
2019-05-02T23:02:02.249Z,3.83
2019-05-02T23:04:32.486Z,3.60
2019-05-02T23:07:02.579Z,3.63
2019-05-02T23:09:32.150Z,3.80
2019-05-02T23:12:02.851Z,3.70
2019-05-02T23:14:32.737Z,4.40
2019-05-02T23:17:02.382Z,4.60
2019-05-02T23:19:33.529Z,4.40
2019-05-02T23:22:03.183Z,4.57
2019-05-02T23:24:38.756Z,3.93
2019-05-02T23:27:13.397Z,4.87
2019-05-02T23:29:43.137Z,3.73
2019-05-02T23:32:12.689Z,3.73
2019-05-02T23:34:42.263Z,4.13
2019-05-02T23:37:12.004Z,3.83
2019-05-02T23:39:41.867Z,4.00
2019-05-02T23:42:13.397Z,4.27
2019-05-02T23:44:42.780Z,3.87
2019-05-02T23:47:12.352Z,3.37
2019-05-02T23:49:42.698Z,3.80
2019-05-02T23:52:12.392Z,4.50
2019-05-02T23:54:49.279Z,4.07
2019-05-02T23:57:13.255Z,4.17
2019-05-02T23:59:42.808Z,4.50
